createdAt,value
2022-12-12T00:01:39.844Z,20.73
2022-12-12T00:04:09.384Z,21.15
2022-12-12T00:06:37.474Z,16.50
2022-12-12T00:09:04.989Z,17.00
2022-12-12T00:11:32.737Z,13.73
2022-12-12T00:14:00.068Z,15.27
2022-12-12T00:16:28.701Z,16.37
2022-12-12T00:18:56.046Z,17.60
2022-12-12T00:21:26.904Z,20.77
2022-12-12T00:23:55.023Z,23.73
2022-12-12T00:26:30.265Z,22.60
2022-12-12T00:28:58.689Z,20.23
2022-12-12T00:31:26.792Z,18.87
2022-12-12T00:33:54.953Z,18.03
2022-12-12T00:36:25.004Z,18.03
2022-12-12T00:38:53.575Z,15.53
2022-12-12T00:41:21.768Z,17.40
2022-12-12T00:43:48.984Z,11.93
2022-12-12T00:46:19.975Z,12.27
2022-12-12T00:48:47.378Z,13.70
2022-12-12T00:51:18.563Z,14.17
2022-12-12T00:53:46.058Z,13.53
2022-12-12T00:56:22.011Z,14.20
2022-12-12T00:58:50.311Z,17.50
2022-12-12T01:01:24.965Z,17.53
2022-12-12T01:03:53.829Z,17.83
2022-12-12T01:06:22.259Z,20.87
2022-12-12T01:08:50.571Z,22.97
2022-12-12T01:11:19.119Z,21.17
2022-12-12T01:13:49.997Z,21.83
2022-12-12T01:16:17.610Z,22.13
2022-12-12T01:18:44.999Z,23.20
2022-12-12T01:21:14.998Z,24.10
2022-12-12T01:23:42.561Z,22.30
2022-12-12T01:26:16.520Z,22.17
2022-12-12T01:28:45.111Z,22.30
2022-12-12T01:31:14.366Z,21.67
2022-12-12T01:33:46.028Z,21.47
2022-12-12T01:36:19.392Z,23.10
2022-12-12T01:38:48.636Z,21.13
2022-12-12T01:41:16.758Z,24.63
2022-12-12T01:43:45.277Z,20.63
2022-12-12T01:46:44.219Z,22.47
2022-12-12T01:49:27.517Z,20.00
2022-12-12T01:52:00.755Z,21.50
2022-12-12T01:54:31.438Z,21.37
2022-12-12T01:57:02.444Z,17.83
2022-12-12T01:59:29.993Z,19.20
2022-12-12T02:01:57.462Z,9.27
2022-12-12T02:04:26.072Z,9.30
2022-12-12T02:06:54.409Z,8.07
2022-12-12T02:09:25.030Z,4.60
2022-12-12T02:11:55.104Z,4.60
2022-12-12T02:14:42.488Z,7.30
2022-12-12T02:17:10.073Z,6.13
2022-12-12T02:20:08.450Z,6.27
2022-12-12T02:23:00.354Z,5.10
2022-12-12T02:25:36.490Z,3.33
2022-12-12T02:28:28.492Z,5.28
2022-12-12T02:31:24.238Z,3.93
2022-12-12T02:34:03.626Z,3.80
2022-12-12T02:36:58.541Z,3.73
2022-12-12T02:39:36.034Z,3.87
2022-12-12T02:42:09.087Z,3.50
2022-12-12T02:44:59.962Z,4.83
2022-12-12T02:47:31.299Z,6.30
2022-12-12T02:50:09.078Z,7.47
2022-12-12T02:52:36.738Z,5.50
2022-12-12T02:55:05.471Z,6.30
2022-12-12T02:57:33.282Z,6.00
2022-12-12T03:00:02.254Z,5.13
2022-12-12T03:02:49.809Z,7.37
2022-12-12T03:05:44.480Z,7.10
2022-12-12T03:08:28.001Z,7.43
2022-12-12T03:11:14.017Z,6.97
2022-12-12T03:13:45.268Z,6.23
2022-12-12T03:16:26.613Z,7.63
2022-12-12T03:19:19.444Z,7.67
2022-12-12T03:22:29.051Z,8.23
2022-12-12T03:25:12.020Z,71.83
2022-12-12T03:28:18.562Z,42.57
2022-12-12T03:30:48.441Z,29.63
2022-12-12T03:33:40.882Z,13.57
2022-12-12T03:36:17.491Z,9.93
2022-12-12T03:38:57.288Z,8.43
2022-12-12T03:41:35.105Z,9.17
2022-12-12T03:44:06.168Z,8.13
2022-12-12T03:46:44.154Z,7.33
2022-12-12T03:49:24.815Z,10.90
2022-12-12T03:51:59.245Z,12.07
2022-12-12T03:54:35.243Z,11.33
2022-12-12T03:57:15.718Z,12.00
2022-12-12T03:59:50.743Z,13.13
2022-12-12T04:02:30.573Z,14.97
2022-12-12T04:05:19.192Z,16.93
2022-12-12T04:07:53.689Z,13.47
2022-12-12T04:11:03.001Z,17.23
2022-12-12T04:13:51.427Z,14.63
2022-12-12T04:16:25.620Z,16.10
2022-12-12T04:19:44.310Z,17.33
2022-12-12T04:22:38.338Z,16.23
2022-12-12T04:25:32.022Z,15.83
2022-12-12T04:28:04.734Z,16.23
2022-12-12T04:30:35.007Z,14.73
2022-12-12T04:33:08.258Z,15.83
2022-12-12T04:35:40.371Z,15.73
2022-12-12T04:38:13.112Z,10.33
2022-12-12T04:40:44.260Z,6.63
2022-12-12T04:43:19.342Z,7.07
2022-12-12T04:45:58.308Z,5.37
2022-12-12T04:48:38.975Z,5.53
2022-12-12T04:51:09.342Z,10.27
2022-12-12T04:53:42.267Z,11.60
2022-12-12T04:56:12.694Z,15.43
2022-12-12T04:58:40.469Z,14.63
2022-12-12T05:01:14.382Z,16.73
2022-12-12T05:04:03.324Z,16.60
2022-12-12T05:06:39.781Z,16.33
2022-12-12T05:09:07.684Z,17.08
2022-12-12T05:11:35.397Z,16.57
2022-12-12T05:14:02.691Z,17.17
2022-12-12T05:16:44.808Z,16.57
2022-12-12T05:19:12.145Z,14.97
2022-12-12T05:21:39.462Z,15.83
2022-12-12T05:24:07.225Z,16.03
2022-12-12T05:26:35.526Z,17.40
2022-12-12T05:29:07.713Z,17.27
2022-12-12T05:31:35.563Z,17.73
2022-12-12T05:34:03.581Z,17.27
2022-12-12T05:36:31.059Z,16.43
2022-12-12T05:38:58.326Z,16.77
2022-12-12T05:41:25.608Z,15.73
2022-12-12T05:43:52.949Z,16.80
2022-12-12T05:46:20.232Z,16.27
2022-12-12T05:48:50.829Z,15.53
2022-12-12T05:51:18.885Z,16.63
2022-12-12T05:53:47.332Z,14.50
2022-12-12T05:56:14.783Z,16.23
2022-12-12T05:58:42.517Z,14.37
2022-12-12T06:01:10.523Z,14.70
2022-12-12T06:03:37.953Z,16.10
2022-12-12T06:06:05.428Z,15.80
2022-12-12T06:08:32.895Z,15.70
2022-12-12T06:11:00.319Z,16.60
2022-12-12T06:13:28.163Z,15.73
2022-12-12T06:15:55.569Z,15.50
2022-12-12T06:18:22.884Z,16.10
2022-12-12T06:20:50.182Z,19.03
2022-12-12T06:23:17.686Z,22.17
2022-12-12T06:25:44.962Z,18.40
2022-12-12T06:28:12.168Z,25.63
2022-12-12T06:30:39.641Z,36.77
2022-12-12T06:33:07.415Z,40.90
2022-12-12T06:35:34.643Z,61.17
2022-12-12T06:38:02.105Z,38.47
2022-12-12T06:40:29.381Z,48.33
2022-12-12T06:42:57.123Z,26.93
2022-12-12T06:45:24.378Z,26.37
2022-12-12T06:47:51.947Z,28.47
2022-12-12T06:50:23.649Z,26.10
2022-12-12T06:52:51.452Z,24.50
2022-12-12T06:55:18.698Z,25.70
2022-12-12T06:57:45.969Z,25.93
2022-12-12T07:00:14.373Z,20.43
2022-12-12T07:02:41.819Z,21.97
2022-12-12T07:05:09.274Z,21.83
2022-12-12T07:07:36.725Z,28.20
2022-12-12T07:10:04.794Z,18.67
2022-12-12T07:12:32.044Z,20.53
2022-12-12T07:14:59.379Z,19.60
2022-12-12T07:17:26.828Z,18.87
2022-12-12T07:19:54.201Z,18.50
2022-12-12T07:22:30.552Z,16.60
2022-12-12T07:24:58.171Z,18.92
2022-12-12T07:27:25.666Z,17.97
2022-12-12T07:29:52.905Z,17.77
2022-12-12T07:32:20.200Z,16.27
2022-12-12T07:34:47.472Z,16.23
2022-12-12T07:37:17.183Z,18.77
2022-12-12T07:39:44.490Z,20.30
2022-12-12T07:42:11.723Z,18.57
2022-12-12T07:44:39.718Z,18.87
2022-12-12T07:47:07.381Z,17.37
2022-12-12T07:49:34.602Z,14.47
2022-12-12T07:52:02.867Z,19.07
2022-12-12T07:54:30.312Z,16.53
2022-12-12T07:57:00.284Z,16.50
2022-12-12T07:59:27.607Z,16.30
2022-12-12T08:01:55.587Z,17.80
2022-12-12T08:04:23.029Z,17.23
2022-12-12T08:06:55.690Z,16.90
2022-12-12T08:09:27.078Z,18.77
2022-12-12T08:11:58.977Z,16.13
2022-12-12T08:14:26.615Z,15.70
2022-12-12T08:16:53.853Z,19.50
2022-12-12T08:19:21.200Z,15.43
2022-12-12T08:21:48.464Z,16.10
2022-12-12T08:24:16.640Z,15.77
2022-12-12T08:26:44.516Z,16.07
2022-12-12T08:29:13.403Z,16.20
2022-12-12T08:31:42.774Z,17.37
2022-12-12T08:34:10.087Z,17.90
2022-12-12T08:36:46.454Z,18.73
2022-12-12T08:39:16.164Z,18.83
2022-12-12T08:41:47.946Z,17.43
2022-12-12T08:44:16.842Z,17.47
2022-12-12T08:46:50.854Z,20.10
2022-12-12T08:49:18.213Z,18.33
2022-12-12T08:51:45.473Z,16.23
2022-12-12T08:54:13.401Z,16.77
2022-12-12T08:56:41.359Z,17.45
2022-12-12T08:59:09.195Z,18.15
2022-12-12T09:01:37.179Z,18.58
2022-12-12T09:04:04.655Z,17.95
2022-12-12T09:06:31.990Z,15.52
2022-12-12T09:08:59.451Z,16.50
2022-12-12T09:11:27.268Z,20.15
2022-12-12T09:13:54.612Z,17.10
2022-12-12T09:16:23.321Z,21.85
2022-12-12T09:18:50.669Z,20.92
2022-12-12T09:21:18.602Z,22.27
2022-12-12T09:23:48.102Z,17.98
2022-12-12T09:26:15.566Z,19.47
2022-12-12T09:28:42.782Z,19.02
2022-12-12T09:31:11.783Z,19.38
2022-12-12T09:33:39.950Z,20.90
2022-12-12T09:36:12.085Z,21.60
2022-12-12T09:38:39.607Z,20.70
2022-12-12T09:41:09.827Z,19.35
2022-12-12T09:43:51.542Z,21.90
2022-12-12T09:46:31.285Z,23.38
2022-12-12T09:49:12.486Z,22.33
2022-12-12T09:51:45.328Z,20.52
2022-12-12T09:54:14.963Z,20.73
2022-12-12T09:56:57.262Z,21.50
2022-12-12T09:59:30.454Z,19.98
2022-12-12T10:01:57.671Z,21.10
2022-12-12T10:04:51.170Z,21.38
2022-12-12T10:07:33.057Z,20.15
2022-12-12T10:10:33.484Z,21.45
2022-12-12T10:13:03.949Z,19.35
2022-12-12T10:15:38.743Z,20.55
2022-12-12T10:18:17.521Z,20.65
2022-12-12T10:20:51.403Z,22.40
2022-12-12T10:23:53.640Z,20.55
2022-12-12T10:26:45.501Z,20.92
2022-12-12T10:29:22.962Z,22.35
2022-12-12T10:32:15.369Z,22.63
2022-12-12T10:35:03.161Z,22.05
2022-12-12T10:37:49.625Z,22.02
2022-12-12T10:40:41.107Z,24.52
2022-12-12T10:43:22.922Z,22.40
2022-12-12T10:46:19.425Z,22.75
2022-12-12T10:48:48.456Z,19.60
2022-12-12T10:51:18.786Z,21.40
2022-12-12T10:53:47.262Z,17.55
2022-12-12T10:56:23.754Z,20.50
2022-12-12T11:02:08.477Z,21.63
2022-12-12T11:06:54.955Z,26.88
2022-12-12T11:09:28.712Z,26.30
2022-12-12T11:12:15.056Z,31.50
2022-12-12T11:14:53.585Z,24.35
2022-12-12T11:17:32.281Z,21.10
2022-12-12T11:20:07.411Z,26.50
2022-12-12T11:22:38.322Z,24.15
2022-12-12T11:25:06.333Z,23.33
2022-12-12T11:27:37.892Z,28.20
2022-12-12T11:30:08.037Z,26.20
2022-12-12T11:32:40.983Z,24.45
2022-12-12T11:35:47.079Z,24.20
2022-12-12T11:38:20.103Z,27.60
2022-12-12T11:40:59.643Z,26.20
2022-12-12T11:43:52.060Z,25.27
2022-12-12T11:46:24.710Z,27.42
2022-12-12T11:48:52.375Z,28.77
2022-12-12T11:51:40.785Z,28.73
2022-12-12T11:54:43.700Z,25.83
2022-12-12T11:57:38.843Z,24.48
2022-12-12T12:00:15.461Z,26.75
2022-12-12T12:05:41.564Z,24.05
2022-12-12T12:08:41.883Z,25.35
2022-12-12T12:11:35.855Z,24.02
2022-12-12T12:14:18.924Z,23.30
2022-12-12T12:16:52.262Z,22.40
2022-12-12T12:19:27.908Z,23.25
2022-12-12T12:22:12.422Z,23.92
2022-12-12T12:25:05.492Z,24.60
2022-12-12T12:27:38.719Z,26.50
2022-12-12T12:30:37.085Z,29.48
2022-12-12T12:33:25.892Z,28.25
2022-12-12T12:36:21.092Z,22.83
2022-12-12T12:39:24.255Z,21.27
2022-12-12T12:42:09.461Z,23.05
2022-12-12T12:44:47.616Z,24.10
2022-12-12T12:47:52.418Z,24.23
2022-12-12T12:50:32.945Z,25.08
2022-12-12T12:53:08.944Z,26.58
2022-12-12T12:55:43.621Z,30.10
2022-12-12T12:58:21.403Z,28.80
2022-12-12T13:01:08.965Z,29.27
2022-12-12T13:03:44.616Z,35.58
2022-12-12T13:06:22.898Z,38.53
2022-12-12T13:08:58.191Z,40.05
2022-12-12T13:11:38.010Z,39.03
2022-12-12T13:14:30.244Z,36.13
2022-12-12T13:17:06.247Z,32.75
2022-12-12T13:19:41.247Z,41.80
2022-12-12T13:22:16.621Z,36.53
2022-12-12T13:25:21.782Z,35.08
2022-12-12T13:27:52.735Z,32.88
2022-12-12T13:30:23.964Z,34.70
2022-12-12T13:33:11.972Z,34.90
2022-12-12T13:35:47.427Z,49.28
2022-12-12T13:38:31.800Z,62.08
2022-12-12T13:41:06.527Z,38.92
2022-12-12T13:43:33.758Z,38.15
2022-12-12T13:46:27.388Z,38.38
2022-12-12T13:48:57.394Z,34.53
2022-12-12T13:51:27.821Z,33.40
2022-12-12T13:54:12.004Z,29.95
2022-12-12T13:56:45.186Z,32.25
2022-12-12T13:59:27.210Z,33.88
2022-12-12T14:02:23.793Z,34.85
2022-12-12T14:05:31.615Z,32.92
2022-12-12T14:08:02.250Z,36.92
2022-12-12T14:10:49.888Z,37.55
2022-12-12T14:13:23.681Z,36.55
2022-12-12T14:16:03.140Z,35.80
2022-12-12T14:18:52.238Z,35.75
2022-12-12T14:21:21.621Z,38.60
2022-12-12T14:23:53.561Z,35.80
2022-12-12T14:26:27.091Z,34.45
2022-12-12T14:29:17.955Z,34.00
2022-12-12T14:32:07.278Z,35.45
2022-12-12T14:34:34.527Z,36.45
2022-12-12T14:37:39.531Z,33.90
2022-12-12T14:40:27.543Z,38.38
2022-12-12T14:43:18.669Z,40.10
2022-12-12T14:45:59.086Z,40.53
2022-12-12T14:48:30.340Z,43.35
2022-12-12T14:51:29.280Z,43.50
2022-12-12T14:54:00.272Z,41.00
2022-12-12T14:56:52.211Z,39.50
2022-12-12T14:59:33.251Z,44.70
2022-12-12T15:02:11.557Z,43.47
2022-12-12T15:04:39.943Z,44.53
2022-12-12T15:07:42.042Z,42.07
2022-12-12T15:10:33.074Z,45.58
2022-12-12T15:13:01.673Z,48.50
2022-12-12T15:15:33.603Z,47.80
2022-12-12T15:18:03.550Z,56.53
2022-12-12T15:20:32.608Z,52.83
2022-12-12T15:23:05.967Z,56.50
2022-12-12T15:25:54.879Z,50.30
2022-12-12T15:28:24.850Z,47.00
2022-12-12T15:30:53.673Z,51.58
2022-12-12T15:33:26.308Z,48.97
2022-12-12T15:36:25.070Z,50.65
2022-12-12T15:39:13.388Z,47.17
2022-12-12T15:41:41.345Z,49.07
2022-12-12T15:44:21.376Z,48.45
2022-12-12T15:46:50.573Z,48.80
2022-12-12T15:49:40.210Z,46.00
2022-12-12T15:52:28.923Z,44.83
2022-12-12T15:55:04.044Z,40.10
2022-12-12T15:57:50.943Z,42.50
2022-12-12T16:03:18.799Z,43.20
2022-12-12T16:05:58.509Z,48.10
2022-12-12T16:08:36.136Z,46.70
2022-12-12T16:11:37.436Z,43.10
2022-12-12T16:14:22.515Z,43.83
2022-12-12T16:16:57.546Z,44.03
2022-12-12T16:19:36.142Z,48.17
2022-12-12T16:22:06.669Z,43.87
2022-12-12T16:24:56.116Z,47.40
2022-12-12T16:27:25.221Z,48.87
2022-12-12T16:29:52.450Z,44.33
2022-12-12T16:32:20.592Z,42.57
2022-12-12T16:34:48.091Z,42.03
2022-12-12T16:37:18.123Z,40.60
2022-12-12T16:39:45.954Z,40.70
2022-12-12T16:42:19.249Z,40.35
2022-12-12T16:44:47.847Z,43.20
2022-12-12T16:47:23.461Z,43.63
2022-12-12T16:49:51.608Z,46.80
2022-12-12T16:52:20.480Z,46.23
2022-12-12T16:54:53.686Z,42.17
2022-12-12T16:57:22.102Z,42.83
2022-12-12T16:59:49.506Z,43.07
2022-12-12T17:02:25.544Z,44.17
2022-12-12T17:04:55.054Z,46.22
2022-12-12T17:07:38.044Z,51.27
2022-12-12T17:10:05.978Z,46.35
2022-12-12T17:12:33.250Z,47.00
2022-12-12T17:15:11.405Z,46.85
2022-12-12T17:17:44.345Z,45.27
2022-12-12T17:20:15.462Z,47.77
2022-12-12T17:22:45.537Z,44.28
2022-12-12T17:25:18.016Z,41.80
2022-12-12T17:27:46.398Z,41.95
2022-12-12T17:30:18.358Z,48.33
2022-12-12T17:35:34.880Z,42.03
2022-12-12T17:38:03.663Z,44.17
2022-12-12T17:40:44.799Z,47.03
2022-12-12T17:44:06.431Z,43.55
2022-12-12T17:46:33.824Z,46.42
2022-12-12T17:50:17.445Z,49.28
2022-12-12T17:52:48.180Z,47.22
2022-12-12T17:55:53.077Z,48.53
2022-12-12T17:58:05.939Z,45.78
2022-12-12T18:00:38.520Z,47.15
2022-12-12T18:03:06.481Z,48.90
2022-12-12T18:05:36.160Z,47.85
2022-12-12T18:08:06.534Z,48.22
2022-12-12T18:10:36.578Z,55.57
2022-12-12T18:13:08.257Z,52.85
2022-12-12T18:15:35.737Z,48.50
2022-12-12T18:18:05.464Z,50.13
2022-12-12T18:20:33.674Z,50.90
2022-12-12T18:23:01.191Z,51.83
2022-12-12T18:25:28.484Z,52.97
2022-12-12T18:27:55.942Z,50.38
2022-12-12T18:30:23.176Z,52.00
2022-12-12T18:32:56.086Z,57.50
2022-12-12T18:35:27.241Z,55.27
2022-12-12T18:37:54.644Z,62.97
2022-12-12T18:40:29.588Z,53.80
2022-12-12T18:42:57.411Z,52.57
2022-12-12T18:45:24.767Z,50.97
2022-12-12T18:47:52.034Z,46.00
2022-12-12T18:50:19.268Z,50.53
2022-12-12T18:52:47.469Z,44.90
2022-12-12T18:55:27.174Z,54.33
2022-12-12T18:57:54.481Z,58.03
2022-12-12T19:00:21.779Z,51.27
2022-12-12T19:02:49.080Z,47.07
2022-12-12T19:05:16.513Z,48.20
2022-12-12T19:07:47.062Z,48.77
2022-12-12T19:10:14.874Z,44.13
2022-12-12T19:12:42.362Z,47.88
2022-12-12T19:15:18.323Z,46.23
2022-12-12T19:17:45.809Z,51.35
2022-12-12T19:20:13.384Z,49.17
2022-12-12T19:22:45.491Z,50.00
2022-12-12T19:25:15.132Z,48.00
2022-12-12T19:27:42.551Z,48.83
2022-12-12T19:30:18.607Z,42.67
2022-12-12T19:32:49.124Z,44.70
2022-12-12T19:35:16.828Z,44.37
2022-12-12T19:37:44.196Z,40.73
2022-12-12T19:40:12.236Z,42.07
2022-12-12T19:42:40.302Z,43.13
2022-12-12T19:45:08.874Z,40.63
2022-12-12T19:47:36.236Z,41.90
2022-12-12T19:50:03.856Z,49.53
2022-12-12T19:52:35.205Z,45.93
2022-12-12T19:55:02.531Z,43.60
2022-12-12T19:57:30.460Z,43.70
2022-12-12T19:59:57.750Z,47.73
2022-12-12T20:02:28.145Z,44.05
2022-12-12T20:04:55.437Z,57.10
2022-12-12T20:07:22.820Z,56.77
2022-12-12T20:09:59.420Z,55.57
2022-12-12T20:14:53.786Z,54.17
2022-12-12T20:17:21.053Z,56.40
2022-12-12T20:19:49.400Z,53.10
2022-12-12T20:22:16.716Z,51.37
2022-12-12T20:24:45.033Z,47.78
2022-12-12T20:27:12.321Z,55.47
2022-12-12T20:29:42.518Z,48.73
2022-12-12T20:32:11.126Z,50.33
2022-12-12T20:34:58.989Z,41.77
2022-12-12T20:37:26.537Z,44.10
2022-12-12T20:39:53.838Z,41.87
2022-12-12T20:42:23.376Z,44.03
2022-12-12T20:44:50.738Z,39.57
2022-12-12T20:47:18.032Z,41.20
2022-12-12T20:49:45.357Z,41.47
2022-12-12T20:52:20.718Z,45.60
2022-12-12T20:54:48.181Z,40.80
2022-12-12T20:57:15.411Z,45.63
2022-12-12T20:59:42.878Z,43.63
2022-12-12T21:02:11.373Z,41.73
2022-12-12T21:04:38.595Z,40.80
2022-12-12T21:07:09.691Z,50.80
2022-12-12T21:09:37.167Z,42.83
2022-12-12T21:12:04.608Z,44.37
2022-12-12T21:14:39.230Z,42.07
2022-12-12T21:17:06.464Z,60.40
2022-12-12T21:19:33.704Z,70.63
2022-12-12T21:22:01.331Z,85.50
2022-12-12T21:24:28.602Z,117.57
2022-12-12T21:26:56.783Z,98.77
2022-12-12T21:29:25.218Z,84.03
2022-12-12T21:31:52.876Z,42.63
2022-12-12T21:34:22.370Z,37.40
2022-12-12T21:36:51.710Z,37.97
2022-12-12T21:39:19.701Z,42.60
2022-12-12T21:41:47.367Z,104.20
2022-12-12T21:44:14.742Z,43.13
2022-12-12T21:46:43.204Z,56.87
2022-12-12T21:49:20.199Z,48.20
2022-12-12T21:51:48.159Z,31.67
2022-12-12T21:54:15.753Z,34.67
2022-12-12T21:56:43.860Z,32.47
2022-12-12T21:59:14.851Z,36.43
2022-12-12T22:01:43.186Z,35.00
2022-12-12T22:04:12.690Z,36.13
2022-12-12T22:06:40.319Z,35.60
2022-12-12T22:09:10.190Z,45.80
2022-12-12T22:11:40.907Z,49.17
2022-12-12T22:14:17.243Z,40.03
2022-12-12T22:16:44.838Z,39.03
2022-12-12T22:19:14.832Z,38.70
2022-12-12T22:21:46.653Z,35.73
2022-12-12T22:24:15.557Z,40.13
2022-12-12T22:26:45.485Z,39.77
2022-12-12T22:29:16.142Z,48.40
2022-12-12T22:31:46.687Z,39.60
2022-12-12T22:34:25.733Z,36.97
2022-12-12T22:36:55.767Z,38.03
2022-12-12T22:39:27.200Z,48.30
2022-12-12T22:41:55.886Z,39.00
2022-12-12T22:44:25.545Z,33.27
2022-12-12T22:46:54.756Z,31.73
2022-12-12T22:49:47.863Z,29.90
2022-12-12T22:52:16.756Z,32.70
2022-12-12T22:54:44.022Z,34.90
2022-12-12T22:57:11.324Z,32.80
2022-12-12T22:59:38.785Z,33.03
2022-12-12T23:02:06.055Z,33.53
2022-12-12T23:04:35.741Z,30.97
2022-12-12T23:07:04.304Z,33.40
2022-12-12T23:09:32.844Z,36.90
2022-12-12T23:12:00.240Z,33.37
2022-12-12T23:14:28.051Z,28.53
2022-12-12T23:16:55.455Z,28.93
2022-12-12T23:19:25.939Z,28.50
2022-12-12T23:22:28.778Z,31.00
2022-12-12T23:24:56.202Z,30.10
2022-12-12T23:27:29.782Z,30.40
2022-12-12T23:29:57.104Z,26.80
2022-12-12T23:32:24.454Z,27.27
2022-12-12T23:35:16.849Z,29.33
2022-12-12T23:38:23.208Z,26.43
2022-12-12T23:41:12.128Z,30.60
2022-12-12T23:43:41.068Z,27.57
2022-12-12T23:46:28.421Z,25.90
2022-12-12T23:49:08.199Z,27.73
2022-12-12T23:51:39.817Z,27.40
2022-12-12T23:54:10.891Z,27.97
2022-12-12T23:56:39.590Z,27.77
2022-12-12T23:59:11.651Z,25.30
